Time;durP1;ratioP1;P1;durP2;ratioP2;P2;SDS_P1;SDS_P2;PMS_P1;PMS_P2;Temp;Humidity;BMP_temperature;BMP_pressure;BME280_temperature;BME280_humidity;BME280_pressure;Samples;Min_cycle;Max_cycle;Signal;HPM_P1;HPM_P2
2023/12/31 00:01:23;;;;;;;;;;;;;;;10.34;46.17;101295.38;5047792;28;19924;-81
2023/12/31 00:03:48;;;;;;;;;;;;;;;10.34;46.55;101292.72;5049252;28;19924;-82
2023/12/31 00:06:13;;;;;;;;;;;;;;;10.33;46.47;101290.28;5049125;28;19927;-82
2023/12/31 00:08:38;;;;;;;;;;;;;;;10.34;46.36;101286.53;5049336;28;20009;-82
2023/12/31 00:11:04;;;;;;;;;;;;;;;10.35;46.20;101282.81;5049598;28;20458;-81
2023/12/31 00:13:29;;;;;;;;;;;;;;;10.36;46.16;101279.91;5050149;28;20839;-81
2023/12/31 00:15:54;;;;;;;;;;;;;;;10.39;46.38;101274.06;5048542;28;19925;-81
2023/12/31 00:18:19;;;;;;;;;;;;;;;10.42;46.38;101280.84;5048959;28;19927;-82
2023/12/31 00:20:45;;;;;;;;;;;;;;;10.45;46.51;101275.03;5047154;28;20597;-81
2023/12/31 00:23:11;;;;;;;;;;;;;;;10.50;46.86;101283.16;5049235;28;19978;-81
2023/12/31 00:25:37;;;;;;;;;;;;;;;10.53;47.00;101275.47;5048412;28;19926;-81
2023/12/31 00:28:02;;;;;;;;;;;;;;;10.56;46.52;101275.00;5047870;28;19971;-83
2023/12/31 00:30:28;;;;;;;;;;;;;;;10.60;46.94;101272.69;5047853;28;20612;-82
2023/12/31 00:32:54;;;;;;;;;;;;;;;10.65;46.89;101272.78;5048766;28;20541;-82
2023/12/31 00:35:19;;;;;;;;;;;;;;;10.70;46.98;101264.03;5047772;28;21051;-82
2023/12/31 00:37:44;;;;;;;;;;;;;;;10.75;47.20;101272.16;5047712;28;20843;-81
2023/12/31 00:40:09;;;;;;;;;;;;;;;10.77;47.05;101278.94;5048967;28;19975;-82
2023/12/31 00:42:35;;;;;;;;;;;;;;;10.76;46.95;101284.50;5047468;28;19925;-82
2023/12/31 00:45:01;;;;;;;;;;;;;;;10.75;47.07;101283.69;5048315;28;19925;-82
2023/12/31 00:47:26;;;;;;;;;;;;;;;10.78;46.85;101272.53;5048757;28;20586;-82
2023/12/31 00:49:51;;;;;;;;;;;;;;;10.83;47.02;101282.53;5047836;28;19931;-82
2023/12/31 00:52:17;;;;;;;;;;;;;;;10.85;46.98;101278.56;5047875;28;20118;-82
2023/12/31 00:54:42;;;;;;;;;;;;;;;10.87;47.00;101281.81;5049405;28;19932;-82
2023/12/31 00:57:07;;;;;;;;;;;;;;;10.90;46.99;101283.19;5049356;28;19947;-82
2023/12/31 00:59:32;;;;;;;;;;;;;;;10.94;47.10;101281.66;5048617;28;20037;-81
2023/12/31 01:01:58;;;;;;;;;;;;;;;10.98;46.85;101282.84;5047842;28;19925;-82
2023/12/31 01:04:23;;;;;;;;;;;;;;;10.97;47.11;101281.22;5047833;28;19928;-82
2023/12/31 01:06:48;;;;;;;;;;;;;;;10.94;47.09;101284.34;5047970;28;20450;-82
2023/12/31 01:09:13;;;;;;;;;;;;;;;10.97;47.03;101283.09;5047105;28;19924;-83
2023/12/31 01:11:39;;;;;;;;;;;;;;;11.00;47.27;101279.94;5048606;28;20008;-86
2023/12/31 01:14:04;;;;;;;;;;;;;;;11.01;47.50;101277.00;5050005;28;20491;-81
2023/12/31 01:16:29;;;;;;;;;;;;;;;11.02;47.34;101273.28;5049939;28;20012;-82
2023/12/31 01:18:55;;;;;;;;;;;;;;;11.06;47.51;101282.47;5048842;28;19967;-82
2023/12/31 01:21:21;;;;;;;;;;;;;;;11.09;47.56;101278.50;5048647;28;19928;-82
2023/12/31 01:23:46;;;;;;;;;;;;;;;11.09;47.60;101279.31;5045429;28;19931;-82
2023/12/31 01:26:12;;;;;;;;;;;;;;;11.08;47.37;101283.03;5050690;28;19959;-82
2023/12/31 01:28:37;;;;;;;;;;;;;;;11.12;47.37;101280.69;5079414;28;20553;-82
2023/12/31 01:31:02;;;;;;;;;;;;;;;11.15;47.32;101278.38;5047009;28;19986;-82
2023/12/31 01:33:28;;;;;;;;;;;;;;;11.18;47.57;101288.63;5049671;28;19970;-82
2023/12/31 01:35:54;;;;;;;;;;;;;;;11.20;47.44;101286.50;5048967;28;19971;-82
2023/12/31 01:38:19;;;;;;;;;;;;;;;11.23;47.43;101279.03;5047897;28;20049;-82
2023/12/31 01:40:52;;;;;;;;;;;;;;;11.23;47.53;101279.03;5048441;28;20380;-82
2023/12/31 01:43:19;;;;;;;;;;;;;;;11.22;47.52;101280.09;5051305;28;20467;-82
2023/12/31 01:45:44;;;;;;;;;;;;;;;11.22;47.51;101274.72;5047678;28;20013;-82
2023/12/31 01:48:09;;;;;;;;;;;;;;;11.22;47.39;101272.03;5049391;28;20023;-82
2023/12/31 01:50:35;;;;;;;;;;;;;;;11.23;47.47;101276.34;5053065;28;20391;-82
2023/12/31 01:53:00;;;;;;;;;;;;;;;11.25;47.60;101276.91;5051516;28;19982;-82
2023/12/31 01:55:26;;;;;;;;;;;;;;;11.29;47.45;101268.16;5050844;28;19932;-82
2023/12/31 01:57:51;;;;;;;;;;;;;;;11.30;47.48;101264.41;5050958;28;20112;-82
2023/12/31 02:00:18;;;;;;;;;;;;;;;11.31;47.62;101266.06;5052675;28;19928;-82
2023/12/31 02:02:46;;;;;;;;;;;;;;;11.31;47.48;101254.50;5052597;28;19929;-81
2023/12/31 02:05:12;;;;;;;;;;;;;;;11.29;47.69;101257.41;5051165;28;19925;-82
2023/12/31 02:07:37;;;;;;;;;;;;;;;11.30;47.49;101242.94;5050717;28;19936;-82
2023/12/31 02:10:02;;;;;;;;;;;;;;;11.31;47.62;101243.75;5051583;28;19967;-82
2023/12/31 02:12:28;;;;;;;;;;;;;;;11.33;47.64;101242.50;5050390;28;20384;-82
2023/12/31 02:14:53;;;;;;;;;;;;;;;11.34;47.59;101240.63;5051960;28;19956;-81
2023/12/31 02:17:18;;;;;;;;;;;;;;;11.35;47.81;101236.88;5051458;28;19947;-84
2023/12/31 02:19:44;;;;;;;;;;;;;;;11.36;47.72;101235.81;5051402;28;20105;-84
2023/12/31 02:22:09;;;;;;;;;;;;;;;11.39;47.61;101229.97;5050870;28;19947;-84
2023/12/31 02:24:50;;;;;;;;;;;;;;;11.41;47.77;101222.50;5049646;28;20691;-84
2023/12/31 02:27:16;;;;;;;;;;;;;;;11.41;47.56;101209.06;5051796;28;19931;-83
2023/12/31 02:29:41;;;;;;;;;;;;;;;11.43;47.56;101209.66;5049688;28;19924;-84
2023/12/31 02:32:06;;;;;;;;;;;;;;;11.46;47.47;101203.78;5050202;28;21742;-84
2023/12/31 02:34:32;;;;;;;;;;;;;;;11.45;47.67;101216.38;5052079;28;19920;-84
2023/12/31 02:36:57;;;;;;;;;;;;;;;11.43;47.43;101212.31;5050651;28;20384;-84
2023/12/31 02:39:23;;;;;;;;;;;;;;;11.39;47.78;101193.22;5050399;28;19925;-83
2023/12/31 02:41:48;;;;;;;;;;;;;;;11.38;47.49;101204.19;5051155;28;21235;-83
2023/12/31 02:44:13;;;;;;;;;;;;;;;11.36;47.58;101199.06;5050808;28;19933;-84
2023/12/31 02:46:39;;;;;;;;;;;;;;;11.33;47.76;101206.81;5051157;28;19924;-84
2023/12/31 02:49:06;;;;;;;;;;;;;;;11.33;47.62;101201.44;5050876;28;20535;-84
2023/12/31 02:51:32;;;;;;;;;;;;;;;11.33;47.42;101207.63;5050060;28;19931;-84
2023/12/31 02:53:57;;;;;;;;;;;;;;;11.30;47.62;101200.03;5050743;28;19929;-83
2023/12/31 02:56:23;;;;;;;;;;;;;;;11.29;47.74;101197.59;5050143;28;21187;-84
2023/12/31 02:58:49;;;;;;;;;;;;;;;11.30;48.06;101199.22;5050334;28;19928;-84
2023/12/31 03:01:14;;;;;;;;;;;;;;;11.26;47.88;101185.47;5051355;28;19971;-84
2023/12/31 03:03:39;;;;;;;;;;;;;;;11.28;48.04;101191.41;5050446;28;19932;-84
2023/12/31 03:06:04;;;;;;;;;;;;;;;11.27;47.62;101178.25;5049350;28;19925;-83
2023/12/31 03:08:30;;;;;;;;;;;;;;;11.25;48.00;101180.34;5050420;28;19924;-84
2023/12/31 03:10:55;;;;;;;;;;;;;;;11.24;47.96;101184.09;5049948;28;20502;-83
2023/12/31 03:13:20;;;;;;;;;;;;;;;11.20;48.03;101173.03;5051713;28;20015;-84
2023/12/31 03:15:45;;;;;;;;;;;;;;;11.18;48.18;101167.91;5050797;28;20316;-83
2023/12/31 03:18:11;;;;;;;;;;;;;;;11.20;48.29;101173.84;5052405;28;19924;-84
2023/12/31 03:20:36;;;;;;;;;;;;;;;11.20;47.98;101163.13;5049896;28;20019;-85
2023/12/31 03:23:01;;;;;;;;;;;;;;;11.22;48.41;101164.75;5049834;28;19924;-84
2023/12/31 03:25:26;;;;;;;;;;;;;;;11.25;48.18;101164.25;5047656;28;20007;-84
2023/12/31 03:27:52;;;;;;;;;;;;;;;11.28;48.07;101158.41;5049845;28;19927;-84
2023/12/31 03:30:18;;;;;;;;;;;;;;;11.24;48.09;101162.63;5047910;28;19946;-83
2023/12/31 03:32:43;;;;;;;;;;;;;;;11.23;48.12;101156.47;5050637;28;19928;-84
2023/12/31 03:35:08;;;;;;;;;;;;;;;11.22;47.93;101157.50;5050023;28;19925;-84
2023/12/31 03:37:34;;;;;;;;;;;;;;;11.22;48.54;101164.75;5050491;28;19958;-84
2023/12/31 03:39:59;;;;;;;;;;;;;;;11.26;48.33;101161.34;5049857;28;20428;-84
2023/12/31 03:42:25;;;;;;;;;;;;;;;11.28;48.42;101169.94;5049928;28;19928;-84
2023/12/31 03:44:50;;;;;;;;;;;;;;;11.28;48.55;101163.78;5050707;28;19925;-84
2023/12/31 03:47:15;;;;;;;;;;;;;;;11.25;48.16;101164.25;5047803;28;19920;-84
2023/12/31 03:49:41;;;;;;;;;;;;;;;11.23;48.36;101156.47;5048506;28;21243;-84
2023/12/31 03:52:06;;;;;;;;;;;;;;;11.18;48.50;101153.69;5048889;28;19923;-84
2023/12/31 03:54:31;;;;;;;;;;;;;;;11.13;48.38;101153.59;5049740;28;19920;-84
2023/12/31 03:56:57;;;;;;;;;;;;;;;11.06;48.33;101151.06;5051203;28;20335;-84
2023/12/31 03:59:22;;;;;;;;;;;;;;;11.05;48.46;101141.41;5050887;28;20015;-84
2023/12/31 04:01:48;;;;;;;;;;;;;;;11.05;48.79;101145.94;5049093;28;19921;-83
2023/12/31 04:04:16;;;;;;;;;;;;;;;11.06;48.78;101144.91;5049168;28;20455;-84
2023/12/31 04:06:44;;;;;;;;;;;;;;;11.08;48.71;101151.63;5048105;28;20642;-84
2023/12/31 04:09:11;;;;;;;;;;;;;;;11.09;48.63;101155.13;5048853;28;20565;-84
2023/12/31 04:11:36;;;;;;;;;;;;;;;11.13;48.88;101148.22;5049664;28;20412;-84
2023/12/31 04:14:01;;;;;;;;;;;;;;;11.14;49.03;101150.69;5050099;28;19925;-84
2023/12/31 04:16:27;;;;;;;;;;;;;;;11.16;48.60;101148.56;5050007;28;19971;-84
2023/12/31 04:18:52;;;;;;;;;;;;;;;11.21;48.65;101153.22;5047506;28;20400;-84
2023/12/31 04:21:17;;;;;;;;;;;;;;;11.13;48.70;101149.06;5047255;28;20047;-84
2023/12/31 04:23:43;;;;;;;;;;;;;;;11.10;48.97;101141.47;5050191;28;20019;-84
2023/12/31 04:26:08;;;;;;;;;;;;;;;11.11;48.82;101137.75;5049716;28;19931;-84
2023/12/31 04:28:33;;;;;;;;;;;;;;;11.11;49.05;101136.94;5050271;28;19968;-84
2023/12/31 04:30:58;;;;;;;;;;;;;;;11.11;48.68;101131.56;5048037;28;20384;-84
2023/12/31 04:33:24;;;;;;;;;;;;;;;11.12;49.14;101136.69;5048975;28;19928;-84
2023/12/31 04:35:49;;;;;;;;;;;;;;;11.11;49.02;101132.38;5049571;28;20069;-84
2023/12/31 04:38:14;;;;;;;;;;;;;;;11.13;49.40;101137.50;5079753;27;20508;-84
2023/12/31 04:40:39;;;;;;;;;;;;;;;11.07;49.11;101127.75;5049248;28;19978;-84
2023/12/31 04:43:05;;;;;;;;;;;;;;;11.04;49.03;101126.38;5051900;28;19924;-84
2023/12/31 04:45:30;;;;;;;;;;;;;;;11.05;49.05;101122.63;5080784;27;20408;-83
2023/12/31 04:47:55;;;;;;;;;;;;;;;11.05;49.22;101129.88;5047676;28;19924;-84
2023/12/31 04:50:20;;;;;;;;;;;;;;;11.02;49.04;101127.66;5062385;28;20004;-84
2023/12/31 04:52:46;;;;;;;;;;;;;;;11.02;48.83;101122.31;5048115;28;19943;-84
2023/12/31 04:55:11;;;;;;;;;;;;;;;10.99;48.83;101120.91;5048459;28;19925;-84
2023/12/31 04:57:36;;;;;;;;;;;;;;;10.97;48.94;101125.72;5049048;28;20684;-84
2023/12/31 05:00:03;;;;;;;;;;;;;;;10.98;48.96;101124.66;5048663;28;19924;-83
2023/12/31 05:02:28;;;;;;;;;;;;;;;11.00;49.29;101122.53;5047805;28;19956;-84
2023/12/31 05:04:53;;;;;;;;;;;;;;;11.01;49.20;101116.13;5048808;28;20020;-84
2023/12/31 05:07:18;;;;;;;;;;;;;;;11.02;49.02;101108.91;5047287;28;20164;-83
2023/12/31 05:09:43;;;;;;;;;;;;;;;10.99;48.90;101107.53;5049488;28;20165;-84
2023/12/31 05:12:09;;;;;;;;;;;;;;;10.99;48.93;101112.88;5046049;28;20451;-84
2023/12/31 05:14:34;;;;;;;;;;;;;;;10.97;48.92;101096.22;5046224;28;19924;-84
2023/12/31 05:16:59;;;;;;;;;;;;;;;10.97;49.18;101103.47;5047358;28;19947;-84
2023/12/31 05:19:25;;;;;;;;;;;;;;;10.98;49.18;101099.72;5046084;28;19951;-85
2023/12/31 05:21:50;;;;;;;;;;;;;;;10.89;48.96;101092.06;5048099;28;19925;-84
2023/12/31 05:24:15;;;;;;;;;;;;;;;10.85;49.07;101090.91;5049396;28;20418;-84
2023/12/31 05:26:41;;;;;;;;;;;;;;;10.82;48.98;101091.41;5053513;28;19924;-84
2023/12/31 05:29:06;;;;;;;;;;;;;;;10.80;49.00;101088.16;5051957;28;19981;-84
2023/12/31 05:31:32;;;;;;;;;;;;;;;10.77;49.29;101087.81;5052378;28;19948;-84
2023/12/31 05:33:57;;;;;;;;;;;;;;;10.76;49.28;101072.78;5052197;28;19969;-84
2023/12/31 05:36:22;;;;;;;;;;;;;;;10.73;48.94;101081.31;5051480;28;20408;-83
2023/12/31 05:38:48;;;;;;;;;;;;;;;10.71;49.06;101081.53;5052550;28;20019;-84
2023/12/31 05:41:13;;;;;;;;;;;;;;;10.66;48.99;101088.69;5052863;28;19986;-84
2023/12/31 05:43:38;;;;;;;;;;;;;;;10.59;49.29;101086.97;5053411;28;19924;-84
2023/12/31 05:46:04;;;;;;;;;;;;;;;10.54;49.49;101096.75;5051372;28;19928;-83
2023/12/31 05:48:29;;;;;;;;;;;;;;;10.52;49.53;101080.13;5051651;28;19970;-84
2023/12/31 05:50:54;;;;;;;;;;;;;;;10.51;49.44;101076.63;5051729;28;19925;-84
2023/12/31 05:53:19;;;;;;;;;;;;;;;10.50;49.61;101071.50;5050784;28;19929;-84
2023/12/31 05:55:45;;;;;;;;;;;;;;;10.47;49.60;101063.97;5053073;28;19927;-84
2023/12/31 05:58:10;;;;;;;;;;;;;;;10.45;49.31;101064.19;5052354;28;19925;-84
2023/12/31 06:00:36;;;;;;;;;;;;;;;10.42;49.53;101059.31;5052459;28;20050;-84
2023/12/31 06:03:01;;;;;;;;;;;;;;;10.40;49.37;101061.41;5052246;28;20034;-84
2023/12/31 06:05:27;;;;;;;;;;;;;;;10.36;49.42;101059.44;5052183;28;19924;-84
2023/12/31 06:07:52;;;;;;;;;;;;;;;10.35;49.60;101057.81;5052137;28;19924;-84
2023/12/31 06:10:17;;;;;;;;;;;;;;;10.32;49.64;101066.34;5051507;28;21398;-84
2023/12/31 06:12:43;;;;;;;;;;;;;;;10.32;49.39;101058.31;5052687;28;19990;-84
2023/12/31 06:15:09;;;;;;;;;;;;;;;10.31;49.69;101054.00;5066114;28;20016;-84
2023/12/31 06:17:34;;;;;;;;;;;;;;;10.29;49.68;101043.53;5050709;28;19948;-84
2023/12/31 06:20:00;;;;;;;;;;;;;;;10.28;49.38;101041.91;5050767;28;20393;-84
2023/12/31 06:22:25;;;;;;;;;;;;;;;10.27;49.64;101045.63;5050148;28;19925;-84
2023/12/31 06:24:50;;;;;;;;;;;;;;;10.26;49.56;101039.47;5049685;28;19925;-83
2023/12/31 06:27:16;;;;;;;;;;;;;;;10.26;49.62;101039.47;5050757;28;19917;-84
2023/12/31 06:29:41;;;;;;;;;;;;;;;10.26;49.61;101042.16;5049484;28;19932;-84
2023/12/31 06:32:07;;;;;;;;;;;;;;;10.25;49.56;101037.03;5050924;28;19924;-85
2023/12/31 06:34:32;;;;;;;;;;;;;;;10.20;49.57;101036.88;5049214;28;20332;-84
2023/12/31 06:36:57;;;;;;;;;;;;;;;10.17;49.49;101040.84;5050607;28;19927;-84
2023/12/31 06:39:22;;;;;;;;;;;;;;;10.14;49.67;101033.31;5051851;28;19925;-84
2023/12/31 06:41:49;;;;;;;;;;;;;;;10.14;49.65;101043.19;5051611;28;19968;-83
2023/12/31 06:44:14;;;;;;;;;;;;;;;10.10;49.97;101042.06;5051788;28;19974;-84
2023/12/31 06:46:40;;;;;;;;;;;;;;;10.08;49.75;101042.28;5051657;28;19929;-83
2023/12/31 06:49:05;;;;;;;;;;;;;;;10.05;49.75;101047.28;5051933;28;19968;-84
2023/12/31 06:51:31;;;;;;;;;;;;;;;10.06;49.96;101043.59;5049489;28;19924;-83
2023/12/31 06:53:58;;;;;;;;;;;;;;;10.08;50.22;101042.28;5050466;28;19929;-84
2023/12/31 06:56:23;;;;;;;;;;;;;;;10.13;50.44;101038.91;5050011;28;19924;-84
2023/12/31 06:58:49;;;;;;;;;;;;;;;10.14;50.18;101038.66;5051814;28;20010;-84
2023/12/31 07:01:14;;;;;;;;;;;;;;;10.16;50.13;101033.06;5051188;28;19931;-84
2023/12/31 07:03:40;;;;;;;;;;;;;;;10.15;50.07;101037.59;5051841;28;19971;-84
2023/12/31 07:06:05;;;;;;;;;;;;;;;10.19;50.10;101032.56;5048082;28;19921;-84
2023/12/31 07:08:30;;;;;;;;;;;;;;;10.24;50.10;101032.72;5047536;28;21537;-83
2023/12/31 07:10:56;;;;;;;;;;;;;;;10.29;50.16;101030.13;5083271;28;19925;-84
2023/12/31 07:13:21;;;;;;;;;;;;;;;10.29;50.08;101028.28;5048946;28;19928;-83
2023/12/31 07:15:46;;;;;;;;;;;;;;;10.33;50.36;101033.16;5051492;28;19925;-84
2023/12/31 07:18:12;;;;;;;;;;;;;;;10.32;49.80;101026.97;5049329;28;19929;-83
2023/12/31 07:20:37;;;;;;;;;;;;;;;10.29;49.87;101017.56;5051526;28;19931;-83
2023/12/31 07:23:03;;;;;;;;;;;;;;;10.28;49.78;101020.47;5050922;28;19925;-83
2023/12/31 07:25:28;;;;;;;;;;;;;;;10.25;50.16;101026.31;5052404;28;20051;-84
2023/12/31 07:27:56;;;;;;;;;;;;;;;10.21;49.87;101027.81;5049688;28;19931;-84
2023/12/31 07:30:22;;;;;;;;;;;;;;;10.17;49.78;101030.13;5055634;28;20549;-83
2023/12/31 07:32:47;;;;;;;;;;;;;;;10.17;50.46;101029.34;5051106;28;19924;-84
2023/12/31 07:35:12;;;;;;;;;;;;;;;10.19;50.44;101027.22;5050027;28;19924;-84
2023/12/31 07:37:38;;;;;;;;;;;;;;;10.22;50.11;101024.09;5054239;28;19932;-84
2023/12/31 07:40:05;;;;;;;;;;;;;;;10.24;50.61;101014.78;5050795;28;20391;-84
2023/12/31 07:42:30;;;;;;;;;;;;;;;10.28;50.55;101015.13;5048394;28;19924;-85
2023/12/31 07:44:56;;;;;;;;;;;;;;;10.32;50.15;101015.44;5050695;28;19970;-83
2023/12/31 07:47:21;;;;;;;;;;;;;;;10.37;50.60;101018.22;5049422;28;19927;-84
2023/12/31 07:49:47;;;;;;;;;;;;;;;10.37;50.12;101016.34;5049466;28;19921;-84
2023/12/31 07:52:12;;;;;;;;;;;;;;;10.36;50.21;101012.03;5050970;28;19924;-83
2023/12/31 07:54:37;;;;;;;;;;;;;;;10.38;50.19;101015.28;5049849;28;20016;-84
2023/12/31 07:57:03;;;;;;;;;;;;;;;10.42;50.39;101011.09;5049835;28;20328;-84
2023/12/31 07:59:28;;;;;;;;;;;;;;;10.48;50.63;101010.13;5046626;28;20003;-83
2023/12/31 08:01:53;;;;;;;;;;;;;;;10.52;50.44;101005.09;5048060;28;19925;-83
2023/12/31 08:04:19;;;;;;;;;;;;;;;10.53;50.29;101006.72;5045506;28;20102;-83
2023/12/31 08:06:44;;;;;;;;;;;;;;;10.55;50.62;101010.78;5046466;28;22034;-83
2023/12/31 08:09:11;;;;;;;;;;;;;;;10.60;50.21;101010.09;5046518;28;19979;-83
2023/12/31 08:11:37;;;;;;;;;;;;;;;10.62;50.20;101009.84;5050842;28;19929;-83
2023/12/31 08:14:03;;;;;;;;;;;;;;;10.58;50.60;101010.28;5052531;28;19931;-84
2023/12/31 08:16:28;;;;;;;;;;;;;;;10.62;50.28;100993.75;5053715;28;19925;-83
2023/12/31 08:18:54;;;;;;;;;;;;;;;10.63;50.67;100992.72;5056171;28;19947;-84
2023/12/31 08:21:19;;;;;;;;;;;;;;;10.66;50.82;101005.63;5054757;28;19925;-83
2023/12/31 08:23:45;;;;;;;;;;;;;;;10.69;50.73;101013.16;5054366;28;19967;-83
2023/12/31 08:26:10;;;;;;;;;;;;;;;10.72;50.89;101004.63;5056558;28;19923;-83
2023/12/31 08:28:36;;;;;;;;;;;;;;;10.76;50.40;101011.94;5057271;28;20449;-83
2023/12/31 08:31:01;;;;;;;;;;;;;;;10.80;50.40;101009.63;5056267;28;19954;-84
2023/12/31 08:33:27;;;;;;;;;;;;;;;10.83;50.64;101009.13;5053638;28;19929;-84
2023/12/31 08:35:54;;;;;;;;;;;;;;;10.86;50.42;100992.56;5054411;28;20705;-83
2023/12/31 08:38:19;;;;;;;;;;;;;;;10.91;50.41;100995.31;5052633;28;19924;-83
2023/12/31 08:40:44;;;;;;;;;;;;;;;10.93;50.50;100987.81;5055791;28;19917;-84
2023/12/31 08:43:10;;;;;;;;;;;;;;;10.97;50.33;101001.56;5053739;28;19971;-83
2023/12/31 08:45:39;;;;;;;;;;;;;;;10.99;50.11;101000.28;5055420;28;19930;-83
2023/12/31 08:48:05;;;;;;;;;;;;;;;11.01;50.36;100997.34;5053460;28;19930;-84
2023/12/31 08:50:30;;;;;;;;;;;;;;;11.04;50.55;100996.84;5057427;28;19924;-84
2023/12/31 08:52:56;;;;;;;;;;;;;;;11.08;50.55;100992.63;5053610;28;19946;-83
2023/12/31 08:55:21;;;;;;;;;;;;;;;11.14;50.49;100989.78;5052840;28;20802;-84
2023/12/31 08:57:47;;;;;;;;;;;;;;;11.19;50.42;100989.03;5054291;28;19924;-84
2023/12/31 09:00:13;;;;;;;;;;;;;;;11.24;50.21;100990.97;5055671;28;20503;-84
2023/12/31 09:02:38;;;;;;;;;;;;;;;11.29;50.41;100991.03;5055156;28;19924;-84
2023/12/31 09:05:04;;;;;;;;;;;;;;;11.33;50.46;100993.00;5054893;28;19971;-83
2023/12/31 09:07:30;;;;;;;;;;;;;;;11.36;50.27;100992.50;5055554;28;20010;-84
2023/12/31 09:09:55;;;;;;;;;;;;;;;11.40;50.15;100992.81;5054128;28;19921;-84
2023/12/31 09:12:20;;;;;;;;;;;;;;;11.44;50.11;100985.88;5058404;28;19916;-83
2023/12/31 09:14:46;;;;;;;;;;;;;;;11.50;50.44;100984.91;5061143;28;19917;-84
2023/12/31 09:17:11;;;;;;;;;;;;;;;11.57;50.36;100987.41;5060486;28;20613;-84
2023/12/31 09:19:37;;;;;;;;;;;;;;;11.65;50.47;100978.91;5055897;28;19932;-84
2023/12/31 09:22:03;;;;;;;;;;;;;;;11.71;49.87;100981.44;5056061;28;19995;-83
2023/12/31 09:24:29;;;;;;;;;;;;;;;11.73;50.14;100979.31;5054814;28;20027;-84
2023/12/31 09:26:54;;;;;;;;;;;;;;;11.75;50.23;100969.13;5056739;28;21523;-84
2023/12/31 09:29:19;;;;;;;;;;;;;;;11.78;49.87;100963.28;5057460;28;19927;-84
2023/12/31 09:31:45;;;;;;;;;;;;;;;11.78;49.95;100959.75;5056872;28;20330;-84
2023/12/31 09:34:10;;;;;;;;;;;;;;;11.82;49.93;100960.09;5060009;28;20407;-83
2023/12/31 09:36:35;;;;;;;;;;;;;;;11.84;50.06;100957.97;5055811;28;19920;-84
2023/12/31 09:39:01;;;;;;;;;;;;;;;11.90;49.89;100956.97;5054656;28;19922;-84
2023/12/31 09:41:26;;;;;;;;;;;;;;;11.94;49.97;100958.09;5055824;28;19928;-83
2023/12/31 09:43:54;;;;;;;;;;;;;;;11.96;49.75;100958.66;5052033;28;19927;-84
2023/12/31 09:46:20;;;;;;;;;;;;;;;11.98;49.75;100946.59;5053614;28;19917;-84
2023/12/31 09:48:46;;;;;;;;;;;;;;;12.01;49.79;100948.75;5054303;28;19927;-85
2023/12/31 09:51:11;;;;;;;;;;;;;;;12.00;49.73;100946.34;5056100;28;19920;-84
2023/12/31 09:53:38;;;;;;;;;;;;;;;12.01;49.70;100924.59;5053689;28;19929;-84
2023/12/31 09:56:04;;;;;;;;;;;;;;;12.06;49.68;100926.53;5055471;28;20289;-84
2023/12/31 09:58:29;;;;;;;;;;;;;;;12.06;49.51;100924.66;5054936;28;20452;-84
2023/12/31 10:00:55;;;;;;;;;;;;;;;12.09;49.77;100917.97;5057320;28;19931;-84
2023/12/31 10:03:21;;;;;;;;;;;;;;;12.10;49.63;100906.97;5057528;28;20007;-84
2023/12/31 10:05:49;;;;;;;;;;;;;;;12.17;49.79;100900.59;5051643;28;20562;-84
2023/12/31 10:08:15;;;;;;;;;;;;;;;12.23;49.38;100903.06;5059622;28;20381;-84
2023/12/31 10:10:40;;;;;;;;;;;;;;;12.23;49.30;100903.06;5057986;28;19947;-84
2023/12/31 10:13:09;;;;;;;;;;;;;;;12.27;49.43;100898.00;5059925;28;19924;-83
2023/12/31 10:15:35;;;;;;;;;;;;;;;12.29;49.42;100901.25;5060162;28;19966;-84
2023/12/31 10:18:04;;;;;;;;;;;;;;;12.29;49.32;100890.50;5058898;28;19921;-84
2023/12/31 10:20:29;;;;;;;;;;;;;;;12.29;49.17;100896.69;5056586;28;20003;-85
2023/12/31 10:22:54;;;;;;;;;;;;;;;12.27;49.24;100889.94;5060527;28;20015;-84
2023/12/31 10:25:24;;;;;;;;;;;;;;;12.27;49.30;100895.31;5054275;28;20582;-84
2023/12/31 10:27:49;;;;;;;;;;;;;;;12.30;49.54;100884.84;5055092;28;20316;-84
2023/12/31 10:30:14;;;;;;;;;;;;;;;12.30;49.46;100882.16;5055177;28;19928;-84
2023/12/31 10:32:40;;;;;;;;;;;;;;;12.33;49.41;100875.47;5057866;28;19932;-83
2023/12/31 10:35:06;;;;;;;;;;;;;;;12.38;49.54;100873.63;5057074;28;19917;-84
2023/12/31 10:37:31;;;;;;;;;;;;;;;12.47;49.09;100875.84;5059005;28;19917;-84
2023/12/31 10:39:57;;;;;;;;;;;;;;;12.45;48.98;100865.38;5062359;28;19921;-83
2023/12/31 10:42:22;;;;;;;;;;;;;;;12.50;48.83;100853.84;5069382;28;19917;-84
2023/12/31 10:44:53;;;;;;;;;;;;;;;12.52;49.31;100846.31;5066164;28;19920;-84
2023/12/31 10:47:18;;;;;;;;;;;;;;;12.61;49.00;100834.84;5062565;28;19917;-85
2023/12/31 10:49:46;;;;;;;;;;;;;;;12.70;48.86;100840.53;5061497;28;19927;-83
2023/12/31 10:52:13;;;;;;;;;;;;;;;12.76;48.61;100844.06;5057554;28;20780;-83
2023/12/31 10:54:47;;;;;;;;;;;;;;;12.73;48.68;100836.50;5059466;28;19928;-84
2023/12/31 10:57:13;;;;;;;;;;;;;;;12.74;48.96;100827.38;5054325;28;19920;-84
2023/12/31 10:59:41;;;;;;;;;;;;;;;12.80;48.71;100820.97;5052924;28;19924;-84
2023/12/31 11:02:14;;;;;;;;;;;;;;;12.90;48.90;100818.31;5057157;28;19921;-85
2023/12/31 11:04:42;;;;;;;;;;;;;;;12.98;48.60;100826.72;5057109;28;19927;-84
2023/12/31 11:07:08;;;;;;;;;;;;;;;13.04;48.64;100813.28;5058910;28;19921;-84
2023/12/31 11:09:34;;;;;;;;;;;;;;;13.11;48.43;100805.81;5059798;28;19920;-84
2023/12/31 11:11:59;;;;;;;;;;;;;;;13.14;48.39;100795.31;5055277;28;19916;-84
2023/12/31 11:14:29;;;;;;;;;;;;;;;13.17;48.27;100783.22;5057351;28;19925;-83
2023/12/31 11:17:13;;;;;;;;;;;;;;;13.22;48.29;100775.19;5054752;28;19950;-84
2023/12/31 11:19:53;;;;;;;;;;;;;;;13.27;48.51;100767.91;5051392;28;19924;-84
2023/12/31 11:22:38;;;;;;;;;;;;;;;13.35;48.40;100757.72;5053388;28;20483;-84
2023/12/31 11:25:04;;;;;;;;;;;;;;;13.41;48.32;100764.72;5059305;28;19974;-84
2023/12/31 11:27:32;;;;;;;;;;;;;;;13.42;47.94;100761.78;5061466;28;20422;-84
2023/12/31 11:29:58;;;;;;;;;;;;;;;13.38;47.91;100754.50;5057249;28;19928;-83
2023/12/31 11:32:27;;;;;;;;;;;;;;;13.38;47.69;100751.81;5059601;28;19925;-84
2023/12/31 11:34:52;;;;;;;;;;;;;;;13.40;47.99;100742.41;5056288;28;19920;-84
2023/12/31 11:37:17;;;;;;;;;;;;;;;13.40;48.04;100738.91;5054003;28;19932;-84
2023/12/31 11:39:53;;;;;;;;;;;;;;;13.36;47.82;100727.06;5054589;28;19921;-83
2023/12/31 11:42:19;;;;;;;;;;;;;;;13.36;47.92;100730.56;5050751;28;20400;-85
2023/12/31 11:44:45;;;;;;;;;;;;;;;13.36;47.82;100711.72;5059274;28;19931;-84
2023/12/31 11:47:11;;;;;;;;;;;;;;;13.33;47.91;100712.25;5057286;28;19920;-84
2023/12/31 11:49:38;;;;;;;;;;;;;;;13.30;47.93;100697.47;5055543;28;19928;-83
2023/12/31 11:52:04;;;;;;;;;;;;;;;13.33;47.88;100698.81;5056826;28;19925;-84
2023/12/31 11:54:37;;;;;;;;;;;;;;;13.38;47.52;100689.91;5056081;28;19924;-84
2023/12/31 11:57:03;;;;;;;;;;;;;;;13.34;47.60;100676.19;5058538;28;19916;-85
2023/12/31 11:59:32;;;;;;;;;;;;;;;13.35;47.71;100672.44;5058177;28;19927;-84
2023/12/31 12:02:00;;;;;;;;;;;;;;;13.36;47.67;100670.53;5058055;28;19924;-84
2023/12/31 12:04:26;;;;;;;;;;;;;;;13.33;47.86;100671.88;5055345;28;19983;-83
2023/12/31 12:06:52;;;;;;;;;;;;;;;13.32;47.60;100662.19;5055323;28;19924;-84
2023/12/31 12:09:21;;;;;;;;;;;;;;;13.35;47.49;100661.66;5055182;28;19921;-84
2023/12/31 12:11:47;;;;;;;;;;;;;;;13.36;47.65;100657.09;5054658;28;19924;-83
2023/12/31 12:14:12;;;;;;;;;;;;;;;13.36;47.38;100657.91;5057718;28;20534;-84
2023/12/31 12:16:42;;;;;;;;;;;;;;;13.31;47.53;100657.91;5056608;28;19946;-84
2023/12/31 12:19:07;;;;;;;;;;;;;;;13.30;47.56;100645.53;5057509;28;19924;-84
2023/12/31 12:21:33;;;;;;;;;;;;;;;13.31;47.58;100641.75;5056624;28;19920;-84
2023/12/31 12:24:01;;;;;;;;;;;;;;;13.30;47.43;100637.44;5051908;28;19921;-84
2023/12/31 12:26:26;;;;;;;;;;;;;;;13.27;47.42;100627.19;5057718;28;19927;-83
2023/12/31 12:28:55;;;;;;;;;;;;;;;13.27;47.42;100629.88;5057703;28;19932;-84